Tabellarische Übersicht vom Donnerstag, den 21.11.2019

Oder anderes Datum wählen:






max 7,2°C 96,0% 4,8°C 1013,3hPa 7,0°C 0,0km/h (0Bft) 0,0km/h 0° (N) ∑0,0l/m² 20,000klx ∑0,0min
min -0,7°C 83,0% -1,2°C 1005,7hPa -1,0°C 0,0km/h (0Bft) 0,0km/h 0° (N) ∑0,0l/m² 0,000klx ∑0,0min
Ø 2,6°C 93,0% 1,6°C 1008,9hPa 3,0°C 0,0km/h (0Bft) 0,0km/h 0° (N) ∑0,0l/m² 9,000klx ∑0,0min
Zeit Temperatur Luftfeuchte Taupunkt Luftdruck Windchill Windböen Windgeschwindigkeit Windrichtung Regen Helligkeit Regenzeit
22:05 6,9°C 85,7% 4,7°C 1005,9hPa 6,9°C 0,0km/h (0Bft) 0,0km/h 0,0l/m² 0,000klx 0,0min
22:00 7,1°C 84,7% 4,7°C 1006,0hPa 7,1°C 0,0km/h (0Bft) 0,0km/h 0,0l/m² 0,000klx 0,0min
21:55 7,2°C 84,8% 4,8°C 1006,0hPa 7,2°C 0,0km/h (0Bft) 0,0km/h 0,0l/m² 0,000klx 0,0min
21:50 7,2°C 84,5% 4,8°C 1006,0hPa 7,2°C 0,0km/h (0Bft) 0,0km/h 0,0l/m² 0,000klx 0,0min
21:45 7,2°C 84,9% 4,8°C 1006,0hPa 7,2°C 0,0km/h (0Bft) 0,0km/h 0,0l/m² 0,000klx 0,0min
21:40 6,8°C 86,9% 4,7°C 1006,0hPa 6,8°C 0,0km/h (0Bft) 0,0km/h 0,0l/m² 0,000klx 0,0min
21:35 6,8°C 86,4% 4,7°C 1005,9hPa 6,8°C 0,0km/h (0Bft) 0,0km/h 0,0l/m² 0,000klx 0,0min
21:30 6,7°C 86,5% 4,6°C 1005,9hPa 6,7°C 0,0km/h (0Bft) 0,0km/h 0,0l/m² 0,000klx 0,0min
21:25 6,4°C 87,7% 4,6°C 1006,0hPa 6,4°C 0,0km/h (0Bft) 0,0km/h 0,0l/m² 0,000klx 0,0min
21:20 6,2°C 88,5% 4,4°C 1005,9hPa 6,2°C 0,0km/h (0Bft) 0,0km/h 0,0l/m² 0,000klx 0,0min
21:15 5,9°C 90,2% 4,4°C 1005,8hPa 5,9°C 0,0km/h (0Bft) 0,0km/h 0,0l/m² 0,000klx 0,0min
21:10 6,1°C 89,1% 4,4°C 1005,7hPa 6,1°C 0,0km/h (0Bft) 0,0km/h 0,0l/m² 0,000klx 0,0min
21:05 5,6°C 92,3% 4,5°C 1005,7hPa 5,6°C 0,0km/h (0Bft) 0,0km/h 0,0l/m² 0,000klx 0,0min
21:00 5,0°C 93,9% 4,1°C 1005,8hPa 5,0°C 0,0km/h (0Bft) 0,0km/h 0,0l/m² 0,000klx 0,0min
20:55 4,6°C 94,0% 3,7°C 1005,8hPa 4,6°C 0,0km/h (0Bft) 0,0km/h 0,0l/m² 0,000klx 0,0min
20:50 4,8°C 93,7% 3,8°C 1005,8hPa 4,8°C 0,0km/h (0Bft) 0,0km/h 0,0l/m² 0,000klx 0,0min
20:45 4,7°C 93,6% 3,8°C 1005,9hPa 4,7°C 0,0km/h (0Bft) 0,0km/h 0,0l/m² 0,000klx 0,0min
20:40 5,0°C 92,2% 3,8°C 1005,9hPa 5,0°C 0,0km/h (0Bft) 0,0km/h 0,0l/m² 0,000klx 0,0min
20:35 5,3°C 92,5% 4,2°C 1005,9hPa 5,3°C 0,0km/h (0Bft) 0,0km/h 0,0l/m² 0,000klx 0,0min
20:30 4,6°C 93,7% 3,7°C 1005,9hPa 4,6°C 0,0km/h (0Bft) 0,0km/h 0,0l/m² 0,000klx 0,0min
20:25 4,8°C 93,3% 3,8°C 1005,9hPa 4,8°C 0,0km/h (0Bft) 0,0km/h 0,0l/m² 0,000klx 0,0min
20:20 5,1°C 91,8% 3,8°C 1005,8hPa 5,1°C 0,0km/h (0Bft) 0,0km/h 0,0l/m² 0,000klx 0,0min
20:15 5,0°C 93,0% 3,9°C 1005,7hPa 5,0°C 0,0km/h (0Bft) 0,0km/h 0,0l/m² 0,000klx 0,0min
20:10 4,5°C 93,9% 3,6°C 1005,8hPa 4,5°C 0,0km/h (0Bft) 0,0km/h 0,0l/m² 0,000klx 0,0min
20:05 4,4°C 94,4% 3,6°C 1005,7hPa 4,4°C 0,0km/h (0Bft) 0,0km/h 0,0l/m² 0,000klx 0,0min
20:00 4,0°C 94,9% 3,2°C 1005,7hPa 4,0°C 0,0km/h (0Bft) 0,0km/h 0,0l/m² 0,000klx 0,0min
19:55 3,5°C 94,7% 2,8°C 1005,7hPa 3,5°C 0,0km/h (0Bft) 0,0km/h 0,0l/m² 0,000klx 0,0min
19:50 3,7°C 94,3% 2,8°C 1005,7hPa 3,7°C 0,0km/h (0Bft) 0,0km/h 0,0l/m² 0,000klx 0,0min
19:45 4,1°C 93,7% 3,2°C 1005,8hPa 4,1°C 0,0km/h (0Bft) 0,0km/h 0,0l/m² 0,000klx 0,0min
19:40 4,3°C 94,7% 3,5°C 1005,8hPa 4,3°C 0,0km/h (0Bft) 0,0km/h 0,0l/m² 0,000klx 0,0min
19:35 3,9°C 95,1% 3,1°C 1005,9hPa 3,9°C 0,0km/h (0Bft) 0,0km/h 0,0l/m² 0,000klx 0,0min
19:30 3,4°C 95,2% 2,7°C 1006,0hPa 3,4°C 0,0km/h (0Bft) 0,0km/h 0,0l/m² 0,000klx 0,0min
19:25 3,2°C 95,2% 2,5°C 1006,1hPa 3,2°C 0,0km/h (0Bft) 0,0km/h 0,0l/m² 0,000klx 0,0min
19:20 3,1°C 95,2% 2,4°C 1006,2hPa 3,1°C 0,0km/h (0Bft) 0,0km/h 0,0l/m² 0,000klx 0,0min
19:15 3,1°C 95,1% 2,4°C 1006,2hPa 3,1°C 0,0km/h (0Bft) 0,0km/h 0,0l/m² 0,000klx 0,0min
19:10 3,1°C 95,0% 2,4°C 1006,2hPa 3,1°C 0,0km/h (0Bft) 0,0km/h 0,0l/m² 0,000klx 0,0min
19:05 3,3°C 95,0% 2,6°C 1006,2hPa 3,3°C 0,0km/h (0Bft) 0,0km/h 0,0l/m² 0,000klx 0,0min
19:00 3,4°C 94,9% 2,7°C 1006,2hPa 3,4°C 0,0km/h (0Bft) 0,0km/h 0,0l/m² 0,000klx 0,0min
18:55 3,5°C 94,9% 2,8°C 1006,2hPa 3,5°C 0,0km/h (0Bft) 0,0km/h 0,0l/m² 0,000klx 0,0min
18:50 3,5°C 95,0% 2,8°C 1006,2hPa 3,5°C 0,0km/h (0Bft) 0,0km/h 0,0l/m² 0,000klx 0,0min
18:45 3,5°C 95,0% 2,8°C 1006,3hPa 3,5°C 0,0km/h (0Bft) 0,0km/h 0,0l/m² 0,000klx 0,0min
18:40 3,5°C 94,9% 2,8°C 1006,3hPa 3,5°C 0,0km/h (0Bft) 0,0km/h 0,0l/m² 0,000klx 0,0min
18:35 3,5°C 94,9% 2,8°C 1006,3hPa 3,5°C 0,0km/h (0Bft) 0,0km/h 0,0l/m² 0,000klx 0,0min
18:30 3,5°C 94,9% 2,8°C 1006,2hPa 3,5°C 0,0km/h (0Bft) 0,0km/h 0,0l/m² 0,000klx 0,0min
18:25 3,5°C 94,9% 2,8°C 1006,3hPa 3,5°C 0,0km/h (0Bft) 0,0km/h 0,0l/m² 0,000klx 0,0min
18:20 3,6°C 94,8% 2,8°C 1006,3hPa 3,6°C 0,0km/h (0Bft) 0,0km/h 0,0l/m² 0,000klx 0,0min
18:15 3,5°C 94,7% 2,8°C 1006,3hPa 3,5°C 0,0km/h (0Bft) 0,0km/h 0,0l/m² 0,000klx 0,0min
18:10 3,7°C 94,6% 2,9°C 1006,3hPa 3,7°C 0,0km/h (0Bft) 0,0km/h 0,0l/m² 0,000klx 0,0min
18:05 3,7°C 94,5% 2,9°C 1006,3hPa 3,7°C 0,0km/h (0Bft) 0,0km/h 0,0l/m² 0,000klx 0,0min
18:00 3,9°C 94,2% 3,0°C 1006,3hPa 3,9°C 0,0km/h (0Bft) 0,0km/h 0,0l/m² 0,000klx 0,0min
17:55 4,0°C 94,0% 3,1°C 1006,4hPa 4,0°C 0,0km/h (0Bft) 0,0km/h 0,0l/m² 0,000klx 0,0min
17:50 4,2°C 93,8% 3,3°C 1006,4hPa 4,2°C 0,0km/h (0Bft) 0,0km/h 0,0l/m² 0,000klx 0,0min
17:45 4,2°C 93,8% 3,3°C 1006,5hPa 4,2°C 0,0km/h (0Bft) 0,0km/h 0,0l/m² 0,000klx 0,0min
17:40 4,3°C 93,8% 3,4°C 1006,5hPa 4,3°C 0,0km/h (0Bft) 0,0km/h 0,0l/m² 0,000klx 0,0min
17:35 4,3°C 93,8% 3,3°C 1006,5hPa 4,3°C 0,0km/h (0Bft) 0,0km/h 0,0l/m² 0,000klx 0,0min
17:30 4,2°C 93,6% 3,3°C 1006,5hPa 4,2°C 0,0km/h (0Bft) 0,0km/h 0,0l/m² 0,000klx 0,0min
17:25 4,3°C 93,4% 3,3°C 1006,5hPa 4,3°C 0,0km/h (0Bft) 0,0km/h 0,0l/m² 0,000klx 0,0min
17:20 4,4°C 93,4% 3,4°C 1006,6hPa 4,4°C 0,0km/h (0Bft) 0,0km/h 0,0l/m² 0,001klx 0,0min
17:15 4,4°C 93,4% 3,4°C 1006,5hPa 4,4°C 0,0km/h (0Bft) 0,0km/h 0,0l/m² 0,002klx 0,0min
17:10 4,4°C 93,2% 3,4°C 1006,4hPa 4,4°C 0,0km/h (0Bft) 0,0km/h 0,0l/m² 0,005klx 0,0min
17:05 4,5°C 92,9% 3,4°C 1006,5hPa 4,5°C 0,0km/h (0Bft) 0,0km/h 0,0l/m² 0,010klx 0,0min
17:00 4,6°C 92,7% 3,5°C 1006,5hPa 4,6°C 0,0km/h (0Bft) 0,0km/h 0,0l/m² 0,023klx 0,0min
16:55 4,5°C 92,5% 3,4°C 1006,5hPa 4,5°C 0,0km/h (0Bft) 0,0km/h 0,0l/m² 0,049klx 0,0min
16:50 4,6°C 92,3% 3,5°C 1006,5hPa 4,6°C 0,0km/h (0Bft) 0,0km/h 0,0l/m² 0,102klx 0,0min
16:45 4,7°C 92,1% 3,6°C 1006,5hPa 4,7°C 0,0km/h (0Bft) 0,0km/h 0,0l/m² 0,190klx 0,0min
16:40 4,9°C 91,1% 3,5°C 1006,5hPa 4,9°C 0,0km/h (0Bft) 0,0km/h 0,0l/m² 0,322klx 0,0min
16:35 5,0°C 90,5% 3,6°C 1006,4hPa 5,0°C 0,0km/h (0Bft) 0,0km/h 0,0l/m² 0,537klx 0,0min
16:30 5,2°C 90,1% 3,7°C 1006,4hPa 5,2°C 0,0km/h (0Bft) 0,0km/h 0,0l/m² 0,807klx 0,0min
16:25 5,3°C 89,5% 3,7°C 1006,4hPa 5,3°C 0,0km/h (0Bft) 0,0km/h 0,0l/m² 1,137klx 0,0min
16:20 5,5°C 87,8% 3,6°C 1006,4hPa 5,5°C 0,0km/h (0Bft) 0,0km/h 0,0l/m² 1,486klx 0,0min
16:15 5,7°C 86,8% 3,6°C 1006,4hPa 5,7°C 0,0km/h (0Bft) 0,0km/h 0,0l/m² 1,920klx 0,0min
16:10 5,7°C 86,6% 3,7°C 1006,4hPa 5,7°C 0,0km/h (0Bft) 0,0km/h 0,0l/m² 2,430klx 0,0min
16:05 5,8°C 86,3% 3,7°C 1006,4hPa 5,8°C 0,0km/h (0Bft) 0,0km/h 0,0l/m² 2,966klx 0,0min
16:00 5,9°C 85,8% 3,7°C 1006,4hPa 5,9°C 0,0km/h (0Bft) 0,0km/h 0,0l/m² 3,545klx 0,0min
15:55 5,9°C 86,1% 3,8°C 1006,5hPa 5,9°C 0,0km/h (0Bft) 0,0km/h 0,0l/m² 4,063klx 0,0min
15:50 6,0°C 85,7% 3,7°C 1006,5hPa 6,0°C 0,0km/h (0Bft) 0,0km/h 0,0l/m² 4,553klx 0,0min
15:45 6,1°C 85,1% 3,7°C 1006,6hPa 6,1°C 0,0km/h (0Bft) 0,0km/h 0,0l/m² 5,169klx 0,0min
15:40 6,2°C 84,7% 3,8°C 1006,6hPa 6,2°C 0,0km/h (0Bft) 0,0km/h 0,0l/m² 5,994klx 0,0min
15:35 6,2°C 84,2% 3,8°C 1006,6hPa 6,2°C 0,0km/h (0Bft) 0,0km/h 0,0l/m² 7,087klx 0,0min
15:30 6,3°C 84,2% 3,8°C 1006,6hPa 6,3°C 0,0km/h (0Bft) 0,0km/h 0,0l/m² 7,665klx 0,0min
15:25 6,3°C 83,7% 3,8°C 1006,6hPa 6,3°C 0,0km/h (0Bft) 0,0km/h 0,0l/m² 8,880klx 0,0min
15:20 6,4°C 83,3% 3,8°C 1006,7hPa 6,4°C 0,0km/h (0Bft) 0,0km/h 0,0l/m² 9,686klx 0,0min
15:15 6,5°C 82,9% 3,8°C 1006,7hPa 6,5°C 0,0km/h (0Bft) 0,0km/h 0,0l/m² 10,496klx 0,0min
15:10 6,5°C 83,5% 3,9°C 1006,7hPa 6,5°C 0,0km/h (0Bft) 0,0km/h 0,0l/m² 12,386klx 0,0min
15:05 6,4°C 83,6% 3,8°C 1006,7hPa 6,4°C 0,0km/h (0Bft) 0,0km/h 0,0l/m² 13,558klx 0,0min
15:00 6,2°C 83,7% 3,7°C 1006,7hPa 6,2°C 0,0km/h (0Bft) 0,0km/h 0,0l/m² 12,217klx 0,0min
14:55 6,2°C 84,1% 3,7°C 1006,7hPa 6,2°C 0,0km/h (0Bft) 0,0km/h 0,0l/m² 11,407klx 0,0min
14:50 6,3°C 82,9% 3,6°C 1006,7hPa 6,3°C 0,0km/h (0Bft) 0,0km/h 0,0l/m² 11,861klx 0,0min
14:45 6,3°C 83,1% 3,7°C 1006,7hPa 6,3°C 0,0km/h (0Bft) 0,0km/h 0,0l/m² 12,706klx 0,0min
14:40 6,3°C 82,8% 3,6°C 1006,7hPa 6,3°C 0,0km/h (0Bft) 0,0km/h 0,0l/m² 13,425klx 0,0min
14:35 6,4°C 82,8% 3,6°C 1006,7hPa 6,4°C 0,0km/h (0Bft) 0,0km/h 0,0l/m² 17,081klx 0,0min
14:30 6,3°C 83,2% 3,7°C 1006,7hPa 6,3°C 0,0km/h (0Bft) 0,0km/h 0,0l/m² 17,247klx 0,0min
14:25 6,2°C 83,7% 3,7°C 1006,7hPa 6,2°C 0,0km/h (0Bft) 0,0km/h 0,0l/m² 18,563klx 0,0min
14:20 6,1°C 84,7% 3,7°C 1006,7hPa 6,1°C 0,0km/h (0Bft) 0,0km/h 0,0l/m² 17,935klx 0,0min
14:15 6,0°C 84,9% 3,6°C 1006,7hPa 6,0°C 0,0km/h (0Bft) 0,0km/h 0,0l/m² 18,803klx 0,0min
14:10 5,7°C 85,6% 3,5°C 1006,8hPa 5,7°C 0,0km/h (0Bft) 0,0km/h 0,0l/m² 17,305klx 0,0min
14:05 5,5°C 86,2% 3,4°C 1006,9hPa 5,5°C 0,0km/h (0Bft) 0,0km/h 0,0l/m² 14,886klx 0,0min
14:00 5,4°C 86,2% 3,3°C 1006,9hPa 5,4°C 0,0km/h (0Bft) 0,0km/h 0,0l/m² 14,796klx 0,0min
13:55 5,3°C 86,0% 3,1°C 1007,0hPa 5,3°C 0,0km/h (0Bft) 0,0km/h 0,0l/m² 14,490klx 0,0min
13:50 5,2°C 86,5% 3,1°C 1007,1hPa 5,2°C 0,0km/h (0Bft) 0,0km/h 0,0l/m² 14,020klx 0,0min
13:45 5,2°C 86,5% 3,1°C 1007,1hPa 5,2°C 0,0km/h (0Bft) 0,0km/h 0,0l/m² 14,825klx 0,0min
13:40 5,1°C 86,9% 3,1°C 1007,2hPa 5,1°C 0,0km/h (0Bft) 0,0km/h 0,0l/m² 16,530klx 0,0min
13:35 4,9°C 87,5% 3,0°C 1007,2hPa 4,9°C 0,0km/h (0Bft) 0,0km/h 0,0l/m² 15,567klx 0,0min
13:30 4,9°C 88,1% 3,1°C 1007,3hPa 4,9°C 0,0km/h (0Bft) 0,0km/h 0,0l/m² 15,397klx 0,0min
13:25 4,8°C 87,6% 2,9°C 1007,3hPa 4,8°C 0,0km/h (0Bft) 0,0km/h 0,0l/m² 15,072klx 0,0min
13:20 4,8°C 88,5% 3,0°C 1007,4hPa 4,8°C 0,0km/h (0Bft) 0,0km/h 0,0l/m² 14,983klx 0,0min
13:15 4,7°C 88,7% 3,0°C 1007,4hPa 4,7°C 0,0km/h (0Bft) 0,0km/h 0,0l/m² 14,823klx 0,0min
13:10 4,6°C 88,8% 2,9°C 1007,5hPa 4,6°C 0,0km/h (0Bft) 0,0km/h 0,0l/m² 14,478klx 0,0min
13:05 4,5°C 89,1% 2,9°C 1007,6hPa 4,5°C 0,0km/h (0Bft) 0,0km/h 0,0l/m² 14,773klx 0,0min
13:00 4,4°C 89,2% 2,8°C 1007,7hPa 4,4°C 0,0km/h (0Bft) 0,0km/h 0,0l/m² 14,453klx 0,0min
12:55 4,3°C 89,1% 2,7°C 1007,8hPa 4,3°C 0,0km/h (0Bft) 0,0km/h 0,0l/m² 13,963klx 0,0min
12:50 4,3°C 89,2% 2,6°C 1007,8hPa 4,3°C 0,0km/h (0Bft) 0,0km/h 0,0l/m² 14,025klx 0,0min
12:45 4,2°C 89,5% 2,6°C 1007,9hPa 4,2°C 0,0km/h (0Bft) 0,0km/h 0,0l/m² 14,552klx 0,0min
12:40 4,2°C 89,6% 2,6°C 1007,9hPa 4,2°C 0,0km/h (0Bft) 0,0km/h 0,0l/m² 14,946klx 0,0min
12:35 4,1°C 89,5% 2,5°C 1008,0hPa 4,1°C 0,0km/h (0Bft) 0,0km/h 0,0l/m² 15,258klx 0,0min
12:30 4,1°C 89,3% 2,4°C 1008,0hPa 4,1°C 0,0km/h (0Bft) 0,0km/h 0,0l/m² 15,597klx 0,0min
12:25 4,0°C 89,6% 2,5°C 1008,1hPa 4,0°C 0,0km/h (0Bft) 0,0km/h 0,0l/m² 15,802klx 0,0min
12:20 4,0°C 90,1% 2,5°C 1008,1hPa 4,0°C 0,0km/h (0Bft) 0,0km/h 0,0l/m² 15,781klx 0,0min
12:15 3,9°C 89,9% 2,4°C 1008,2hPa 3,9°C 0,0km/h (0Bft) 0,0km/h 0,0l/m² 16,068klx 0,0min
12:10 3,9°C 89,8% 2,4°C 1008,3hPa 3,9°C 0,0km/h (0Bft) 0,0km/h 0,0l/m² 16,449klx 0,0min
12:05 3,9°C 90,0% 2,4°C 1008,3hPa 3,9°C 0,0km/h (0Bft) 0,0km/h 0,0l/m² 16,419klx 0,0min
12:00 3,9°C 91,0% 2,5°C 1008,3hPa 3,9°C 0,0km/h (0Bft) 0,0km/h 0,0l/m² 17,409klx 0,0min
11:55 3,8°C 90,9% 2,5°C 1008,4hPa 3,8°C 0,0km/h (0Bft) 0,0km/h 0,0l/m² 17,704klx 0,0min
11:50 3,7°C 91,0% 2,4°C 1008,4hPa 3,7°C 0,0km/h (0Bft) 0,0km/h 0,0l/m² 19,455klx 0,0min
11:45 3,5°C 91,1% 2,2°C 1008,4hPa 3,5°C 0,0km/h (0Bft) 0,0km/h 0,0l/m² 20,153klx 0,0min
11:40 3,4°C 91,6% 2,1°C 1008,5hPa 3,4°C 0,0km/h (0Bft) 0,0km/h 0,0l/m² 20,467klx 0,0min
11:35 3,1°C 91,9% 1,9°C 1008,5hPa 3,1°C 0,0km/h (0Bft) 0,0km/h 0,0l/m² 19,322klx 0,0min
11:30 3,0°C 92,3% 1,9°C 1008,7hPa 3,0°C 0,0km/h (0Bft) 0,0km/h 0,0l/m² 18,887klx 0,0min
11:25 2,8°C 92,8% 1,8°C 1008,7hPa 2,8°C 0,0km/h (0Bft) 0,0km/h 0,0l/m² 18,993klx 0,0min
11:20 2,6°C 93,3% 1,7°C 1008,8hPa 2,6°C 0,0km/h (0Bft) 0,0km/h 0,0l/m² 18,347klx 0,0min
11:15 2,6°C 93,7% 1,7°C 1008,9hPa 2,6°C 0,0km/h (0Bft) 0,0km/h 0,0l/m² 17,469klx 0,0min
11:10 2,4°C 93,7% 1,5°C 1008,9hPa 2,4°C 0,0km/h (0Bft) 0,0km/h 0,0l/m² 16,375klx 0,0min
11:05 2,3°C 94,1% 1,5°C 1009,0hPa 2,3°C 0,0km/h (0Bft) 0,0km/h 0,0l/m² 16,190klx 0,0min
11:00 2,2°C 94,5% 1,4°C 1009,1hPa 2,2°C 0,0km/h (0Bft) 0,0km/h 0,0l/m² 16,055klx 0,0min
10:55 2,0°C 94,7% 1,2°C 1009,1hPa 2,0°C 0,0km/h (0Bft) 0,0km/h 0,0l/m² 14,866klx 0,0min
10:50 1,8°C 94,9% 1,1°C 1009,1hPa 1,8°C 0,0km/h (0Bft) 0,0km/h 0,0l/m² 14,843klx 0,0min
10:45 1,8°C 95,2% 1,1°C 1009,2hPa 1,8°C 0,0km/h (0Bft) 0,0km/h 0,0l/m² 15,180klx 0,0min
10:40 1,6°C 95,4% 0,9°C 1009,2hPa 1,6°C 0,0km/h (0Bft) 0,0km/h 0,0l/m² 14,881klx 0,0min
10:35 1,5°C 95,5% 0,9°C 1009,2hPa 1,5°C 0,0km/h (0Bft) 0,0km/h 0,0l/m² 13,697klx 0,0min
10:30 1,4°C 95,7% 0,7°C 1009,2hPa 1,4°C 0,0km/h (0Bft) 0,0km/h 0,0l/m² 12,486klx 0,0min
10:25 1,2°C 95,7% 0,6°C 1009,2hPa 1,2°C 0,0km/h (0Bft) 0,0km/h 0,0l/m² 11,602klx 0,0min
10:20 1,1°C 95,8% 0,5°C 1009,2hPa 1,1°C 0,0km/h (0Bft) 0,0km/h 0,0l/m² 11,120klx 0,0min
10:15 1,0°C 95,9% 0,4°C 1009,2hPa 1,0°C 0,0km/h (0Bft) 0,0km/h 0,0l/m² 10,579klx 0,0min
10:10 0,9°C 95,9% 0,4°C 1009,3hPa 0,9°C 0,0km/h (0Bft) 0,0km/h 0,0l/m² 9,364klx 0,0min
10:05 0,8°C 95,9% 0,3°C 1009,4hPa 0,8°C 0,0km/h (0Bft) 0,0km/h 0,0l/m² 8,848klx 0,0min
10:00 0,7°C 95,9% 0,1°C 1009,5hPa 0,7°C 0,0km/h (0Bft) 0,0km/h 0,0l/m² 8,667klx 0,0min
09:55 0,7°C 96,0% 0,1°C 1009,5hPa 0,7°C 0,0km/h (0Bft) 0,0km/h 0,0l/m² 8,372klx 0,0min
09:50 0,5°C 96,0% 0,0°C 1009,6hPa 0,5°C 0,0km/h (0Bft) 0,0km/h 0,0l/m² 7,964klx 0,0min
09:45 0,4°C 96,0% -0,1°C 1009,6hPa 0,4°C 0,0km/h (0Bft) 0,0km/h 0,0l/m² 7,745klx 0,0min
09:40 0,3°C 96,0% -0,3°C 1009,7hPa 0,3°C 0,0km/h (0Bft) 0,0km/h 0,0l/m² 7,261klx 0,0min
09:35 0,1°C 96,0% -0,4°C 1009,7hPa 0,1°C 0,0km/h (0Bft) 0,0km/h 0,0l/m² 6,804klx 0,0min
09:30 0,0°C 96,0% -0,5°C 1009,7hPa 0,0°C 0,0km/h (0Bft) 0,0km/h 0,0l/m² 6,282klx 0,0min
09:25 0,0°C 96,1% -0,5°C 1009,7hPa 0,0°C 0,0km/h (0Bft) 0,0km/h 0,0l/m² 5,762klx 0,0min
09:20 -0,1°C 96,1% -0,5°C 1009,7hPa -0,1°C 0,0km/h (0Bft) 0,0km/h 0,0l/m² 5,339klx 0,0min
09:15 -0,1°C 96,1% -0,6°C 1009,7hPa -0,1°C 0,0km/h (0Bft) 0,0km/h 0,0l/m² 4,907klx 0,0min
09:10 -0,1°C 96,1% -0,6°C 1009,8hPa -0,1°C 0,0km/h (0Bft) 0,0km/h 0,0l/m² 4,491klx 0,0min
09:05 -0,2°C 96,1% -0,7°C 1009,9hPa -0,2°C 0,0km/h (0Bft) 0,0km/h 0,0l/m² 4,134klx 0,0min
09:00 -0,2°C 96,1% -0,7°C 1009,9hPa -0,2°C 0,0km/h (0Bft) 0,0km/h 0,0l/m² 3,802klx 0,0min
08:55 -0,3°C 96,1% -0,7°C 1009,9hPa -0,3°C 0,0km/h (0Bft) 0,0km/h 0,0l/m² 3,450klx 0,0min
08:50 -0,4°C 96,1% -0,8°C 1009,9hPa -0,4°C 0,0km/h (0Bft) 0,0km/h 0,0l/m² 3,083klx 0,0min
08:45 -0,5°C 96,1% -1,0°C 1009,9hPa -0,5°C 0,0km/h (0Bft) 0,0km/h 0,0l/m² 2,728klx 0,0min
08:40 -0,5°C 96,1% -0,9°C 1009,9hPa -0,5°C 0,0km/h (0Bft) 0,0km/h 0,0l/m² 2,381klx 0,0min
08:35 -0,4°C 96,2% -0,9°C 1009,9hPa -0,4°C 0,0km/h (0Bft) 0,0km/h 0,0l/m² 2,066klx 0,0min
08:30 -0,6°C 96,2% -1,1°C 1009,9hPa -0,6°C 0,0km/h (0Bft) 0,0km/h 0,0l/m² 1,778klx 0,0min
08:25 -0,7°C 96,2% -1,2°C 1009,9hPa -0,7°C 0,0km/h (0Bft) 0,0km/h 0,0l/m² 1,491klx 0,0min
08:20 -0,6°C 96,2% -1,1°C 1009,9hPa -0,6°C 0,0km/h (0Bft) 0,0km/h 0,0l/m² 1,192klx 0,0min
08:15 -0,7°C 96,2% -1,1°C 1009,9hPa -0,7°C 0,0km/h (0Bft) 0,0km/h 0,0l/m² 0,915klx 0,0min
08:10 -0,7°C 96,2% -1,2°C 1010,0hPa -0,7°C 0,0km/h (0Bft) 0,0km/h 0,0l/m² 0,671klx 0,0min
08:05 -0,6°C 96,2% -1,1°C 1010,0hPa -0,6°C 0,0km/h (0Bft) 0,0km/h 0,0l/m² 0,475klx 0,0min
08:00 -0,6°C 96,2% -1,1°C 1010,1hPa -0,6°C 0,0km/h (0Bft) 0,0km/h 0,0l/m² 0,319klx 0,0min
07:55 -0,6°C 96,2% -1,1°C 1010,1hPa -0,6°C 0,0km/h (0Bft) 0,0km/h 0,0l/m² 0,197klx 0,0min
07:50 -0,6°C 96,2% -1,1°C 1010,1hPa -0,6°C 0,0km/h (0Bft) 0,0km/h 0,0l/m² 0,111klx 0,0min
07:45 -0,6°C 96,2% -1,1°C 1010,2hPa -0,6°C 0,0km/h (0Bft) 0,0km/h 0,0l/m² 0,057klx 0,0min
07:40 -0,5°C 96,2% -1,0°C 1010,2hPa -0,5°C 0,0km/h (0Bft) 0,0km/h 0,0l/m² 0,028klx 0,0min
07:35 -0,5°C 96,2% -0,9°C 1010,2hPa -0,5°C 0,0km/h (0Bft) 0,0km/h 0,0l/m² 0,013klx 0,0min
07:30 -0,4°C 96,1% -0,9°C 1010,3hPa -0,4°C 0,0km/h (0Bft) 0,0km/h 0,0l/m² 0,006klx 0,0min
07:25 -0,4°C 96,1% -0,9°C 1010,4hPa -0,4°C 0,0km/h (0Bft) 0,0km/h 0,0l/m² 0,003klx 0,0min
07:20 -0,4°C 96,1% -0,9°C 1010,5hPa -0,4°C 0,0km/h (0Bft) 0,0km/h 0,0l/m² 0,001klx 0,0min
07:15 -0,4°C 96,1% -0,8°C 1010,5hPa -0,4°C 0,0km/h (0Bft) 0,0km/h 0,0l/m² 0,001klx 0,0min
07:10 -0,3°C 96,1% -0,8°C 1010,5hPa -0,3°C 0,0km/h (0Bft) 0,0km/h 0,0l/m² 0,001klx 0,0min
07:05 -0,3°C 96,1% -0,8°C 1010,5hPa -0,3°C 0,0km/h (0Bft) 0,0km/h 0,0l/m² 0,000klx 0,0min
07:00 -0,2°C 96,1% -0,7°C 1010,5hPa -0,2°C 0,0km/h (0Bft) 0,0km/h 0,0l/m² 0,001klx 0,0min
06:55 -0,2°C 96,1% -0,7°C 1010,6hPa -0,2°C 0,0km/h (0Bft) 0,0km/h 0,0l/m² 0,000klx 0,0min
06:50 -0,3°C 96,1% -0,7°C 1010,6hPa -0,3°C 0,0km/h (0Bft) 0,0km/h 0,0l/m² 0,001klx 0,0min
06:45 -0,2°C 96,1% -0,7°C 1010,6hPa -0,2°C 0,0km/h (0Bft) 0,0km/h 0,0l/m² 0,001klx 0,0min
06:40 -0,2°C 96,1% -0,7°C 1010,6hPa -0,2°C 0,0km/h (0Bft) 0,0km/h 0,0l/m² 0,000klx 0,0min
06:35 -0,1°C 96,1% -0,6°C 1010,6hPa -0,1°C 0,0km/h (0Bft) 0,0km/h 0,0l/m² 0,001klx 0,0min
06:30 -0,1°C 96,1% -0,6°C 1010,6hPa -0,1°C 0,0km/h (0Bft) 0,0km/h 0,0l/m² 0,000klx 0,0min
06:25 -0,1°C 96,1% -0,6°C 1010,6hPa -0,1°C 0,0km/h (0Bft) 0,0km/h 0,0l/m² 0,001klx 0,0min
06:20 -0,1°C 96,1% -0,6°C 1010,7hPa -0,1°C 0,0km/h (0Bft) 0,0km/h 0,0l/m² 0,001klx 0,0min
06:15 -0,1°C 96,1% -0,6°C 1010,7hPa -0,1°C 0,0km/h (0Bft) 0,0km/h 0,0l/m² 0,000klx 0,0min
06:10 0,0°C 96,1% -0,5°C 1010,7hPa 0,0°C 0,0km/h (0Bft) 0,0km/h 0,0l/m² 0,000klx 0,0min
06:05 -0,2°C 96,1% -0,7°C 1010,7hPa -0,2°C 0,0km/h (0Bft) 0,0km/h 0,0l/m² 0,000klx 0,0min
06:00 -0,2°C 96,1% -0,7°C 1010,7hPa -0,2°C 0,0km/h (0Bft) 0,0km/h 0,0l/m² 0,000klx 0,0min
05:55 -0,1°C 96,1% -0,6°C 1010,8hPa -0,1°C 0,0km/h (0Bft) 0,0km/h 0,0l/m² 0,001klx 0,0min
05:50 -0,1°C 96,1% -0,5°C 1010,8hPa -0,1°C 0,0km/h (0Bft) 0,0km/h 0,0l/m² 0,001klx 0,0min
05:45 0,0°C 96,1% -0,5°C 1010,8hPa 0,0°C 0,0km/h (0Bft) 0,0km/h 0,0l/m² 0,000klx 0,0min
05:40 0,0°C 96,1% -0,5°C 1010,8hPa 0,0°C 0,0km/h (0Bft) 0,0km/h 0,0l/m² 0,000klx 0,0min
05:35 0,0°C 96,1% -0,5°C 1010,9hPa 0,0°C 0,0km/h (0Bft) 0,0km/h 0,0l/m² 0,000klx 0,0min
05:30 0,1°C 96,1% -0,5°C 1010,9hPa 0,1°C 0,0km/h (0Bft) 0,0km/h 0,0l/m² 0,000klx 0,0min
05:25 0,1°C 96,1% -0,4°C 1011,0hPa 0,1°C 0,0km/h (0Bft) 0,0km/h 0,0l/m² 0,000klx 0,0min
05:20 0,2°C 96,0% -0,4°C 1011,0hPa 0,2°C 0,0km/h (0Bft) 0,0km/h 0,0l/m² 0,000klx 0,0min
05:15 0,2°C 96,0% -0,3°C 1011,0hPa 0,2°C 0,0km/h (0Bft) 0,0km/h 0,0l/m² 0,000klx 0,0min
05:10 0,3°C 96,0% -0,3°C 1011,0hPa 0,3°C 0,0km/h (0Bft) 0,0km/h 0,0l/m² 0,000klx 0,0min
05:05 0,2°C 96,0% -0,3°C 1011,1hPa 0,2°C 0,0km/h (0Bft) 0,0km/h 0,0l/m² 0,000klx 0,0min
05:00 0,3°C 96,0% -0,3°C 1011,0hPa 0,3°C 0,0km/h (0Bft) 0,0km/h 0,0l/m² 0,000klx 0,0min
04:55 0,3°C 96,0% -0,3°C 1011,1hPa 0,3°C 0,0km/h (0Bft) 0,0km/h 0,0l/m² 0,000klx 0,0min
04:50 0,3°C 96,0% -0,3°C 1011,0hPa 0,3°C 0,0km/h (0Bft) 0,0km/h 0,0l/m² 0,000klx 0,0min
04:45 0,3°C 96,0% -0,3°C 1011,0hPa 0,3°C 0,0km/h (0Bft) 0,0km/h 0,0l/m² 0,001klx 0,0min
04:40 0,4°C 96,0% -0,2°C 1011,1hPa 0,4°C 0,0km/h (0Bft) 0,0km/h 0,0l/m² 0,000klx 0,0min
04:35 0,3°C 96,0% -0,2°C 1011,1hPa 0,3°C 0,0km/h (0Bft) 0,0km/h 0,0l/m² 0,000klx 0,0min
04:30 0,3°C 96,0% -0,2°C 1011,1hPa 0,3°C 0,0km/h (0Bft) 0,0km/h 0,0l/m² 0,000klx 0,0min
04:25 0,3°C 96,0% -0,2°C 1011,2hPa 0,3°C 0,0km/h (0Bft) 0,0km/h 0,0l/m² 0,000klx 0,0min
04:20 0,3°C 96,0% -0,2°C 1011,2hPa 0,3°C 0,0km/h (0Bft) 0,0km/h 0,0l/m² 0,000klx 0,0min
04:15 0,4°C 96,0% -0,2°C 1011,2hPa 0,4°C 0,0km/h (0Bft) 0,0km/h 0,0l/m² 0,001klx 0,0min
04:10 0,4°C 96,0% -0,2°C 1011,2hPa 0,4°C 0,0km/h (0Bft) 0,0km/h 0,0l/m² 0,000klx 0,0min
04:05 0,4°C 96,0% -0,1°C 1011,2hPa 0,4°C 0,0km/h (0Bft) 0,0km/h 0,0l/m² 0,000klx 0,0min
04:00 0,5°C 96,0% -0,1°C 1011,3hPa 0,5°C 0,0km/h (0Bft) 0,0km/h 0,0l/m² 0,000klx 0,0min
03:55 0,4°C 96,0% -0,1°C 1011,3hPa 0,4°C 0,0km/h (0Bft) 0,0km/h 0,0l/m² 0,000klx 0,0min
03:50 0,5°C 96,0% -0,1°C 1011,3hPa 0,5°C 0,0km/h (0Bft) 0,0km/h 0,0l/m² 0,000klx 0,0min
03:45 0,4°C 96,0% -0,1°C 1011,4hPa 0,4°C 0,0km/h (0Bft) 0,0km/h 0,0l/m² 0,000klx 0,0min
03:40 0,5°C 96,0% -0,1°C 1011,4hPa 0,5°C 0,0km/h (0Bft) 0,0km/h 0,0l/m² 0,000klx 0,0min
03:35 0,4°C 95,9% -0,1°C 1011,5hPa 0,4°C 0,0km/h (0Bft) 0,0km/h 0,0l/m² 0,001klx 0,0min
03:30 0,4°C 95,9% -0,1°C 1011,5hPa 0,4°C 0,0km/h (0Bft) 0,0km/h 0,0l/m² 0,000klx 0,0min
03:25 0,4°C 95,9% -0,1°C 1011,5hPa 0,4°C 0,0km/h (0Bft) 0,0km/h 0,0l/m² 0,001klx 0,0min
03:20 0,5°C 95,9% -0,1°C 1011,6hPa 0,5°C 0,0km/h (0Bft) 0,0km/h 0,0l/m² 0,000klx 0,0min
03:15 0,6°C 95,9% 0,0°C 1011,7hPa 0,6°C 0,0km/h (0Bft) 0,0km/h 0,0l/m² 0,000klx 0,0min
03:10 0,6°C 95,9% 0,0°C 1011,7hPa 0,6°C 0,0km/h (0Bft) 0,0km/h 0,0l/m² 0,001klx 0,0min
03:05 0,5°C 95,9% -0,1°C 1011,7hPa 0,5°C 0,0km/h (0Bft) 0,0km/h 0,0l/m² 0,000klx 0,0min
03:00 0,6°C 95,9% 0,0°C 1011,7hPa 0,6°C 0,0km/h (0Bft) 0,0km/h 0,0l/m² 0,000klx 0,0min
02:55 0,5°C 95,9% -0,1°C 1011,9hPa 0,5°C 0,0km/h (0Bft) 0,0km/h 0,0l/m² 0,001klx 0,0min
02:50 0,5°C 95,9% 0,0°C 1012,0hPa 0,5°C 0,0km/h (0Bft) 0,0km/h 0,0l/m² 0,000klx 0,0min
02:45 0,6°C 95,9% 0,0°C 1012,0hPa 0,6°C 0,0km/h (0Bft) 0,0km/h 0,0l/m² 0,001klx 0,0min
02:40 0,6°C 95,9% 0,0°C 1012,1hPa 0,6°C 0,0km/h (0Bft) 0,0km/h 0,0l/m² 0,000klx 0,0min
02:35 0,7°C 95,9% 0,1°C 1012,1hPa 0,7°C 0,0km/h (0Bft) 0,0km/h 0,0l/m² 0,000klx 0,0min
02:30 0,8°C 95,9% 0,2°C 1012,2hPa 0,8°C 0,0km/h (0Bft) 0,0km/h 0,0l/m² 0,000klx 0,0min
02:25 0,8°C 95,9% 0,2°C 1012,2hPa 0,8°C 0,0km/h (0Bft) 0,0km/h 0,0l/m² 0,000klx 0,0min
02:20 0,8°C 95,9% 0,2°C 1012,1hPa 0,8°C 0,0km/h (0Bft) 0,0km/h 0,0l/m² 0,001klx 0,0min
02:15 0,8°C 95,9% 0,2°C 1012,2hPa 0,8°C 0,0km/h (0Bft) 0,0km/h 0,0l/m² 0,000klx 0,0min
02:10 0,7°C 95,9% 0,2°C 1012,2hPa 0,7°C 0,0km/h (0Bft) 0,0km/h 0,0l/m² 0,000klx 0,0min
02:05 0,8°C 95,8% 0,2°C 1012,3hPa 0,8°C 0,0km/h (0Bft) 0,0km/h 0,0l/m² 0,000klx 0,0min
02:00 0,8°C 95,8% 0,2°C 1012,3hPa 0,8°C 0,0km/h (0Bft) 0,0km/h 0,0l/m² 0,000klx 0,0min
01:55 0,9°C 95,8% 0,3°C 1012,3hPa 0,9°C 0,0km/h (0Bft) 0,0km/h 0,0l/m² 0,001klx 0,0min
01:50 1,0°C 95,8% 0,4°C 1012,4hPa 1,0°C 0,0km/h (0Bft) 0,0km/h 0,0l/m² 0,000klx 0,0min
01:45 0,9°C 95,8% 0,3°C 1012,4hPa 0,9°C 0,0km/h (0Bft) 0,0km/h 0,0l/m² 0,001klx 0,0min
01:40 1,0°C 95,8% 0,4°C 1012,5hPa 1,0°C 0,0km/h (0Bft) 0,0km/h 0,0l/m² 0,000klx 0,0min
01:35 1,0°C 95,8% 0,4°C 1012,5hPa 1,0°C 0,0km/h (0Bft) 0,0km/h 0,0l/m² 0,000klx 0,0min
01:30 1,0°C 95,8% 0,4°C 1012,5hPa 1,0°C 0,0km/h (0Bft) 0,0km/h 0,0l/m² 0,000klx 0,0min
01:25 1,1°C 95,8% 0,5°C 1012,6hPa 1,1°C 0,0km/h (0Bft) 0,0km/h 0,0l/m² 0,000klx 0,0min
01:20 1,1°C 95,8% 0,5°C 1012,6hPa 1,1°C 0,0km/h (0Bft) 0,0km/h 0,0l/m² 0,000klx 0,0min
01:15 1,1°C 95,8% 0,5°C 1012,6hPa 1,1°C 0,0km/h (0Bft) 0,0km/h 0,0l/m² 0,000klx 0,0min
01:10 1,0°C 95,8% 0,4°C 1012,7hPa 1,0°C 0,0km/h (0Bft) 0,0km/h 0,0l/m² 0,000klx 0,0min
01:05 1,0°C 95,8% 0,4°C 1012,8hPa 1,0°C 0,0km/h (0Bft) 0,0km/h 0,0l/m² 0,000klx 0,0min
01:00 1,0°C 95,8% 0,4°C 1012,8hPa 1,0°C 0,0km/h (0Bft) 0,0km/h 0,0l/m² 0,000klx 0,0min
00:55 1,2°C 95,7% 0,5°C 1012,9hPa 1,2°C 0,0km/h (0Bft) 0,0km/h 0,0l/m² 0,000klx 0,0min
00:50 1,2°C 95,7% 0,6°C 1012,9hPa 1,2°C 0,0km/h (0Bft) 0,0km/h 0,0l/m² 0,000klx 0,0min
00:45 1,3°C 95,7% 0,6°C 1013,0hPa 1,3°C 0,0km/h (0Bft) 0,0km/h 0,0l/m² 0,000klx 0,0min
00:40 1,3°C 95,7% 0,6°C 1013,0hPa 1,3°C 0,0km/h (0Bft) 0,0km/h 0,0l/m² 0,000klx 0,0min
00:35 1,2°C 95,7% 0,6°C 1013,0hPa 1,2°C 0,0km/h (0Bft) 0,0km/h 0,0l/m² 0,001klx 0,0min
00:30 1,2°C 95,7% 0,6°C 1013,1hPa 1,2°C 0,0km/h (0Bft) 0,0km/h 0,0l/m² 0,000klx 0,0min
00:25 1,2°C 95,7% 0,6°C 1013,1hPa 1,2°C 0,0km/h (0Bft) 0,0km/h 0,0l/m² 0,000klx 0,0min
00:20 1,3°C 95,7% 0,6°C 1013,1hPa 1,3°C 0,0km/h (0Bft) 0,0km/h 0,0l/m² 0,000klx 0,0min
00:15 1,3°C 95,7% 0,7°C 1013,2hPa 1,3°C 0,0km/h (0Bft) 0,0km/h 0,0l/m² 0,000klx 0,0min
00:10 1,4°C 95,7% 0,8°C 1013,2hPa 1,4°C 0,0km/h (0Bft) 0,0km/h 0,0l/m² 0,000klx 0,0min
00:05 1,5°C 95,7% 0,9°C 1013,2hPa 1,5°C 0,0km/h (0Bft) 0,0km/h 0,0l/m² 0,000klx 0,0min
00:00 1,6°C 95,6% 1,0°C 1013,3hPa 1,6°C 0,0km/h (0Bft) 0,0km/h 0,0l/m² 0,000klx 0,0min

Aktuelle Wetterdaten

21.11.2019 22:05 Uhr